KAXS/AXS METAR and TAF weather

Enter ICAO airport designator
Station Type Date Time Source
KAXS METAR 2018/10/22 16:15 UTC NOAA

KAXS 221615Z AUTO 16003KT 10SM CLR 16/10 A3019 RMK AO2 T01580099


Station Type Date Time Source
KAXS Decoded METAR 2018/10/22 16:15 UTC NOAA

Altus, Altus/Quartz Mountain Regional Airport, OK, United States (KAXS) 34-41-55N 099-20-17W
Oct 22, 2018 - 12:15 PM EDT / 2018.10.22 1615 UTC
Wind: from the SSE (160 degrees) at 3 MPH (3 KT):0
Visibility: 10 mile(s):0
Sky conditions: clear
Temperature: 60.4 F (15.8 C)
Dew Point: 49.8 F (9.9 C)
Relative Humidity: 67%
Pressure (altimeter): 30.19 in. Hg (1022 hPa)
ob: KAXS 221615Z AUTO 16003KT 10SM CLR 16/10 A3019 RMK AO2 T01580099
cycle: 16

Station Type Date Time Source
KAXS TAF UTC NOAA

Error!


Example: see airport list